sensor_id;sensor_type;location;lat;lon;timestamp;temperature;humidity
76787;DHT22;65739;51.482;5.702;2023-08-20T00:02:01;17.20;99.90
76787;DHT22;65739;51.482;5.702;2023-08-20T00:04:28;17.30;99.90
76787;DHT22;65739;51.482;5.702;2023-08-20T00:06:55;17.30;99.90
76787;DHT22;65739;51.482;5.702;2023-08-20T00:09:20;17.40;99.90
76787;DHT22;65739;51.482;5.702;2023-08-20T00:11:46;17.50;99.90
76787;DHT22;65739;51.482;5.702;2023-08-20T00:14:16;17.50;99.90
76787;DHT22;65739;51.482;5.702;2023-08-20T00:16:42;17.50;99.90
76787;DHT22;65739;51.482;5.702;2023-08-20T00:19:09;17.50;99.90
76787;DHT22;65739;51.482;5.702;2023-08-20T00:21:35;17.50;99.90
76787;DHT22;65739;51.482;5.702;2023-08-20T00:24:01;17.50;99.90
76787;DHT22;65739;51.482;5.702;2023-08-20T00:26:26;17.60;99.90
76787;DHT22;65739;51.482;5.702;2023-08-20T00:28:52;17.60;99.90
76787;DHT22;65739;51.482;5.702;2023-08-20T00:31:18;17.60;99.90
76787;DHT22;65739;51.482;5.702;2023-08-20T00:33:43;17.60;99.90
76787;DHT22;65739;51.482;5.702;2023-08-20T00:36:09;17.60;99.90
76787;DHT22;65739;51.482;5.702;2023-08-20T00:38:34;17.60;99.90
76787;DHT22;65739;51.482;5.702;2023-08-20T00:41:00;17.90;99.90
76787;DHT22;65739;51.482;5.702;2023-08-20T00:43:25;17.60;99.90
76787;DHT22;65739;51.482;5.702;2023-08-20T00:45:51;17.60;99.90
76787;DHT22;65739;51.482;5.702;2023-08-20T00:48:16;17.60;99.90
76787;DHT22;65739;51.482;5.702;2023-08-20T00:50:42;17.60;99.90
76787;DHT22;65739;51.482;5.702;2023-08-20T00:53:10;17.60;99.90
76787;DHT22;65739;51.482;5.702;2023-08-20T00:55:36;17.60;99.90
76787;DHT22;65739;51.482;5.702;2023-08-20T00:58:02;17.60;99.90
76787;DHT22;65739;51.482;5.702;2023-08-20T01:00:27;17.60;99.90
76787;DHT22;65739;51.482;5.702;2023-08-20T01:02:53;17.50;99.90
76787;DHT22;65739;51.482;5.702;2023-08-20T01:05:19;17.50;99.90
76787;DHT22;65739;51.482;5.702;2023-08-20T01:08:06;17.60;99.90
76787;DHT22;65739;51.482;5.702;2023-08-20T01:11:00;17.60;99.90
76787;DHT22;65739;51.482;5.702;2023-08-20T01:13:26;17.60;99.90
76787;DHT22;65739;51.482;5.702;2023-08-20T01:15:52;17.60;99.90
76787;DHT22;65739;51.482;5.702;2023-08-20T01:18:17;17.70;99.90
76787;DHT22;65739;51.482;5.702;2023-08-20T01:20:51;17.70;99.90
76787;DHT22;65739;51.482;5.702;2023-08-20T01:28:53;17.90;99.90
76787;DHT22;65739;51.482;5.702;2023-08-20T01:31:19;17.90;99.90
76787;DHT22;65739;51.482;5.702;2023-08-20T01:33:45;17.90;99.90
76787;DHT22;65739;51.482;5.702;2023-08-20T01:36:11;17.90;99.90
76787;DHT22;65739;51.482;5.702;2023-08-20T01:38:37;18.00;99.90
76787;DHT22;65739;51.482;5.702;2023-08-20T01:41:03;18.00;99.90
76787;DHT22;65739;51.482;5.702;2023-08-20T01:43:29;17.90;99.90
76787;DHT22;65739;51.482;5.702;2023-08-20T01:45:54;17.90;99.90
76787;DHT22;65739;51.482;5.702;2023-08-20T01:48:20;18.00;99.90
76787;DHT22;65739;51.482;5.702;2023-08-20T01:50:46;18.00;99.90
76787;DHT22;65739;51.482;5.702;2023-08-20T01:53:11;18.10;99.90
76787;DHT22;65739;51.482;5.702;2023-08-20T01:55:37;18.20;99.90
76787;DHT22;65739;51.482;5.702;2023-08-20T01:58:03;18.20;99.90
76787;DHT22;65739;51.482;5.702;2023-08-20T02:00:29;18.30;99.90
76787;DHT22;65739;51.482;5.702;2023-08-20T02:02:56;18.30;99.90
76787;DHT22;65739;51.482;5.702;2023-08-20T02:05:21;18.30;99.90
76787;DHT22;65739;51.482;5.702;2023-08-20T02:07:47;18.40;99.90
76787;DHT22;65739;51.482;5.702;2023-08-20T02:10:12;18.30;99.90
76787;DHT22;65739;51.482;5.702;2023-08-20T02:12:38;18.20;99.90
76787;DHT22;65739;51.482;5.702;2023-08-20T02:15:04;18.20;99.90
76787;DHT22;65739;51.482;5.702;2023-08-20T02:17:29;18.20;99.90
76787;DHT22;65739;51.482;5.702;2023-08-20T02:19:55;18.30;99.90
76787;DHT22;65739;51.482;5.702;2023-08-20T02:22:20;18.30;99.90
76787;DHT22;65739;51.482;5.702;2023-08-20T02:24:46;18.30;99.90
76787;DHT22;65739;51.482;5.702;2023-08-20T02:27:12;18.30;99.90
76787;DHT22;65739;51.482;5.702;2023-08-20T02:29:37;18.30;99.90
76787;DHT22;65739;51.482;5.702;2023-08-20T02:32:03;18.30;99.90
76787;DHT22;65739;51.482;5.702;2023-08-20T02:34:28;18.40;99.90
76787;DHT22;65739;51.482;5.702;2023-08-20T02:36:54;18.40;99.90
76787;DHT22;65739;51.482;5.702;2023-08-20T02:39:20;18.40;99.90
76787;DHT22;65739;51.482;5.702;2023-08-20T02:41:46;18.40;99.90
76787;DHT22;65739;51.482;5.702;2023-08-20T02:44:11;18.40;99.90
76787;DHT22;65739;51.482;5.702;2023-08-20T02:46:37;18.30;99.90
76787;DHT22;65739;51.482;5.702;2023-08-20T02:49:03;18.20;99.90
76787;DHT22;65739;51.482;5.702;2023-08-20T02:51:29;18.10;99.90
76787;DHT22;65739;51.482;5.702;2023-08-20T02:53:54;18.00;99.90
76787;DHT22;65739;51.482;5.702;2023-08-20T02:56:20;17.90;99.90
76787;DHT22;65739;51.482;5.702;2023-08-20T02:58:46;17.80;99.90
76787;DHT22;65739;51.482;5.702;2023-08-20T03:01:19;17.80;99.90
76787;DHT22;65739;51.482;5.702;2023-08-20T03:03:45;17.70;99.90
76787;DHT22;65739;51.482;5.702;2023-08-20T03:06:10;17.60;99.90
76787;DHT22;65739;51.482;5.702;2023-08-20T03:08:36;17.60;99.90
76787;DHT22;65739;51.482;5.702;2023-08-20T03:11:01;17.50;99.90
76787;DHT22;65739;51.482;5.702;2023-08-20T03:13:27;17.40;99.90
76787;DHT22;65739;51.482;5.702;2023-08-20T03:15:53;17.40;99.90
76787;DHT22;65739;51.482;5.702;2023-08-20T03:18:18;17.30;99.90
76787;DHT22;65739;51.482;5.702;2023-08-20T03:20:44;17.30;99.90
76787;DHT22;65739;51.482;5.702;2023-08-20T03:23:09;17.30;99.90
76787;DHT22;65739;51.482;5.702;2023-08-20T03:25:35;17.20;99.90
76787;DHT22;65739;51.482;5.702;2023-08-20T03:28:00;17.20;99.90
76787;DHT22;65739;51.482;5.702;2023-08-20T03:30:26;17.10;99.90
76787;DHT22;65739;51.482;5.702;2023-08-20T03:32:51;17.10;99.90
76787;DHT22;65739;51.482;5.702;2023-08-20T03:35:17;17.10;99.90
76787;DHT22;65739;51.482;5.702;2023-08-20T03:37:42;17.00;99.90
76787;DHT22;65739;51.482;5.702;2023-08-20T03:40:08;16.90;99.90
76787;DHT22;65739;51.482;5.702;2023-08-20T03:42:33;16.90;99.90
76787;DHT22;65739;51.482;5.702;2023-08-20T03:44:59;16.90;99.90
76787;DHT22;65739;51.482;5.702;2023-08-20T03:47:24;16.90;99.90
76787;DHT22;65739;51.482;5.702;2023-08-20T03:49:50;16.80;99.90
76787;DHT22;65739;51.482;5.702;2023-08-20T03:52:15;16.70;99.90
76787;DHT22;65739;51.482;5.702;2023-08-20T03:54:41;16.70;99.90
76787;DHT22;65739;51.482;5.702;2023-08-20T03:57:07;16.70;99.90
76787;DHT22;65739;51.482;5.702;2023-08-20T03:59:32;16.60;99.90
76787;DHT22;65739;51.482;5.702;2023-08-20T04:01:58;16.70;99.90
76787;DHT22;65739;51.482;5.702;2023-08-20T04:04:24;16.60;99.90
76787;DHT22;65739;51.482;5.702;2023-08-20T04:06:50;16.60;99.90
76787;DHT22;65739;51.482;5.702;2023-08-20T04:09:18;16.50;99.90
76787;DHT22;65739;51.482;5.702;2023-08-20T04:11:43;16.50;99.90
76787;DHT22;65739;51.482;5.702;2023-08-20T04:14:09;16.50;99.90
76787;DHT22;65739;51.482;5.702;2023-08-20T04:16:34;16.40;99.90
76787;DHT22;65739;51.482;5.702;2023-08-20T04:19:00;16.50;99.90
76787;DHT22;65739;51.482;5.702;2023-08-20T04:21:26;16.40;99.90
76787;DHT22;65739;51.482;5.702;2023-08-20T04:23:51;16.40;99.90
76787;DHT22;65739;51.482;5.702;2023-08-20T04:26:18;16.30;99.90
76787;DHT22;65739;51.482;5.702;2023-08-20T04:28:44;16.20;99.90
76787;DHT22;65739;51.482;5.702;2023-08-20T04:31:09;16.30;99.90
76787;DHT22;65739;51.482;5.702;2023-08-20T04:33:35;16.20;99.90
76787;DHT22;65739;51.482;5.702;2023-08-20T04:36:00;16.20;99.90
76787;DHT22;65739;51.482;5.702;2023-08-20T04:38:26;16.20;99.90
76787;DHT22;65739;51.482;5.702;2023-08-20T04:40:51;16.20;99.90
76787;DHT22;65739;51.482;5.702;2023-08-20T04:43:17;16.20;99.90
76787;DHT22;65739;51.482;5.702;2023-08-20T04:45:42;16.10;99.90
76787;DHT22;65739;51.482;5.702;2023-08-20T04:48:08;16.10;99.90
76787;DHT22;65739;51.482;5.702;2023-08-20T04:50:34;16.10;99.90
76787;DHT22;65739;51.482;5.702;2023-08-20T04:53:00;16.10;99.90
76787;DHT22;65739;51.482;5.702;2023-08-20T04:55:26;16.10;99.90
76787;DHT22;65739;51.482;5.702;2023-08-20T04:57:52;16.10;99.90
76787;DHT22;65739;51.482;5.702;2023-08-20T05:00:17;16.10;99.90
76787;DHT22;65739;51.482;5.702;2023-08-20T05:02:43;16.10;99.90
76787;DHT22;65739;51.482;5.702;2023-08-20T05:05:09;16.10;99.90
76787;DHT22;65739;51.482;5.702;2023-08-20T05:07:35;16.20;99.90
76787;DHT22;65739;51.482;5.702;2023-08-20T05:10:01;16.20;99.90
76787;DHT22;65739;51.482;5.702;2023-08-20T05:12:27;16.20;99.90
76787;DHT22;65739;51.482;5.702;2023-08-20T05:14:53;16.20;99.90
76787;DHT22;65739;51.482;5.702;2023-08-20T05:17:18;16.20;99.90
76787;DHT22;65739;51.482;5.702;2023-08-20T05:19:45;16.20;99.90
76787;DHT22;65739;51.482;5.702;2023-08-20T05:22:10;16.30;99.90
76787;DHT22;65739;51.482;5.702;2023-08-20T05:24:37;16.30;99.90
76787;DHT22;65739;51.482;5.702;2023-08-20T05:27:06;16.30;99.90
76787;DHT22;65739;51.482;5.702;2023-08-20T05:29:33;16.60;99.90
76787;DHT22;65739;51.482;5.702;2023-08-20T05:31:59;16.60;99.90
76787;DHT22;65739;51.482;5.702;2023-08-20T05:34:24;16.40;99.90
76787;DHT22;65739;51.482;5.702;2023-08-20T05:36:50;16.50;99.90
76787;DHT22;65739;51.482;5.702;2023-08-20T05:39:15;16.50;99.90
76787;DHT22;65739;51.482;5.702;2023-08-20T05:41:41;16.50;99.90
76787;DHT22;65739;51.482;5.702;2023-08-20T05:44:06;16.60;99.90
76787;DHT22;65739;51.482;5.702;2023-08-20T05:46:32;16.70;99.90
76787;DHT22;65739;51.482;5.702;2023-08-20T05:48:57;16.80;99.90
76787;DHT22;65739;51.482;5.702;2023-08-20T05:51:23;16.90;99.90
76787;DHT22;65739;51.482;5.702;2023-08-20T05:53:48;16.90;99.90
76787;DHT22;65739;51.482;5.702;2023-08-20T05:56:14;17.00;99.90
76787;DHT22;65739;51.482;5.702;2023-08-20T05:58:40;17.10;99.90
76787;DHT22;65739;51.482;5.702;2023-08-20T06:01:05;17.20;99.90
76787;DHT22;65739;51.482;5.702;2023-08-20T06:03:31;17.20;99.90
76787;DHT22;65739;51.482;5.702;2023-08-20T06:05:57;17.30;99.90
76787;DHT22;65739;51.482;5.702;2023-08-20T06:08:23;17.30;99.90
76787;DHT22;65739;51.482;5.702;2023-08-20T06:10:49;17.40;99.90
76787;DHT22;65739;51.482;5.702;2023-08-20T06:13:15;17.50;99.90
76787;DHT22;65739;51.482;5.702;2023-08-20T06:15:41;17.50;99.90
76787;DHT22;65739;51.482;5.702;2023-08-20T06:18:06;17.70;99.90
76787;DHT22;65739;51.482;5.702;2023-08-20T06:20:32;17.80;99.90
76787;DHT22;65739;51.482;5.702;2023-08-20T06:22:57;17.80;99.90
76787;DHT22;65739;51.482;5.702;2023-08-20T06:25:23;17.90;99.90
76787;DHT22;65739;51.482;5.702;2023-08-20T06:27:48;17.90;99.90
76787;DHT22;65739;51.482;5.702;2023-08-20T06:30:14;18.00;99.90
76787;DHT22;65739;51.482;5.702;2023-08-20T06:32:40;18.10;99.90
76787;DHT22;65739;51.482;5.702;2023-08-20T06:35:06;18.20;99.90
76787;DHT22;65739;51.482;5.702;2023-08-20T06:37:31;18.40;99.90
76787;DHT22;65739;51.482;5.702;2023-08-20T06:39:57;18.40;99.90
76787;DHT22;65739;51.482;5.702;2023-08-20T06:42:22;18.50;99.90
76787;DHT22;65739;51.482;5.702;2023-08-20T06:44:48;18.70;99.90
76787;DHT22;65739;51.482;5.702;2023-08-20T06:47:13;18.70;99.90
76787;DHT22;65739;51.482;5.702;2023-08-20T06:49:40;18.70;99.90
76787;DHT22;65739;51.482;5.702;2023-08-20T06:52:06;18.90;99.90
76787;DHT22;65739;51.482;5.702;2023-08-20T06:54:31;19.00;99.90
76787;DHT22;65739;51.482;5.702;2023-08-20T06:56:57;19.00;99.90
76787;DHT22;65739;51.482;5.702;2023-08-20T06:59:23;19.20;99.90
76787;DHT22;65739;51.482;5.702;2023-08-20T07:01:49;19.20;99.90
76787;DHT22;65739;51.482;5.702;2023-08-20T07:04:15;19.30;99.90
76787;DHT22;65739;51.482;5.702;2023-08-20T07:06:40;19.40;99.90
76787;DHT22;65739;51.482;5.702;2023-08-20T07:09:07;19.60;99.90
76787;DHT22;65739;51.482;5.702;2023-08-20T07:11:32;19.60;99.90
76787;DHT22;65739;51.482;5.702;2023-08-20T07:13:58;19.80;99.90
76787;DHT22;65739;51.482;5.702;2023-08-20T07:16:23;19.70;99.90
76787;DHT22;65739;51.482;5.702;2023-08-20T07:18:49;20.00;99.90
76787;DHT22;65739;51.482;5.702;2023-08-20T07:21:14;20.00;99.90
76787;DHT22;65739;51.482;5.702;2023-08-20T07:23:40;20.10;99.90
76787;DHT22;65739;51.482;5.702;2023-08-20T07:26:07;20.10;99.90
76787;DHT22;65739;51.482;5.702;2023-08-20T07:28:33;20.20;99.90
76787;DHT22;65739;51.482;5.702;2023-08-20T07:31:17;20.30;99.90
76787;DHT22;65739;51.482;5.702;2023-08-20T07:33:46;20.30;99.90
76787;DHT22;65739;51.482;5.702;2023-08-20T07:36:13;20.30;99.90
76787;DHT22;65739;51.482;5.702;2023-08-20T07:38:39;20.40;99.90
76787;DHT22;65739;51.482;5.702;2023-08-20T07:41:07;20.50;99.90
76787;DHT22;65739;51.482;5.702;2023-08-20T07:43:32;20.50;99.90
76787;DHT22;65739;51.482;5.702;2023-08-20T07:45:58;20.50;99.90
76787;DHT22;65739;51.482;5.702;2023-08-20T07:48:23;20.50;99.90
76787;DHT22;65739;51.482;5.702;2023-08-20T07:50:49;20.60;99.90
76787;DHT22;65739;51.482;5.702;2023-08-20T07:53:14;20.80;99.90
76787;DHT22;65739;51.482;5.702;2023-08-20T07:55:40;20.90;99.90
76787;DHT22;65739;51.482;5.702;2023-08-20T07:58:05;20.90;99.90
76787;DHT22;65739;51.482;5.702;2023-08-20T08:00:31;21.00;99.90
76787;DHT22;65739;51.482;5.702;2023-08-20T08:02:57;21.10;99.90
76787;DHT22;65739;51.482;5.702;2023-08-20T08:05:22;21.30;99.90
76787;DHT22;65739;51.482;5.702;2023-08-20T08:07:48;21.40;99.90
76787;DHT22;65739;51.482;5.702;2023-08-20T08:10:13;21.50;99.90
76787;DHT22;65739;51.482;5.702;2023-08-20T08:12:39;21.60;99.90
76787;DHT22;65739;51.482;5.702;2023-08-20T08:15:05;21.70;99.90
76787;DHT22;65739;51.482;5.702;2023-08-20T08:17:30;21.80;99.90
76787;DHT22;65739;51.482;5.702;2023-08-20T08:19:56;22.00;99.90
76787;DHT22;65739;51.482;5.702;2023-08-20T08:22:23;22.10;99.90
76787;DHT22;65739;51.482;5.702;2023-08-20T08:24:48;22.40;99.90
76787;DHT22;65739;51.482;5.702;2023-08-20T08:27:14;22.50;99.90
76787;DHT22;65739;51.482;5.702;2023-08-20T08:29:39;22.70;99.90
76787;DHT22;65739;51.482;5.702;2023-08-20T08:32:05;22.80;99.90
76787;DHT22;65739;51.482;5.702;2023-08-20T08:34:30;23.00;99.90
76787;DHT22;65739;51.482;5.702;2023-08-20T08:36:56;23.10;99.90
76787;DHT22;65739;51.482;5.702;2023-08-20T08:39:21;23.30;99.90
76787;DHT22;65739;51.482;5.702;2023-08-20T08:41:51;23.20;99.90
76787;DHT22;65739;51.482;5.702;2023-08-20T08:44:18;23.50;99.90
76787;DHT22;65739;51.482;5.702;2023-08-20T08:46:43;23.60;99.90
76787;DHT22;65739;51.482;5.702;2023-08-20T08:49:09;23.90;99.90
76787;DHT22;65739;51.482;5.702;2023-08-20T08:51:36;24.10;99.90
76787;DHT22;65739;51.482;5.702;2023-08-20T08:54:03;24.20;99.90
76787;DHT22;65739;51.482;5.702;2023-08-20T08:56:29;24.40;99.90
76787;DHT22;65739;51.482;5.702;2023-08-20T08:58:54;24.60;99.90
76787;DHT22;65739;51.482;5.702;2023-08-20T09:01:20;24.50;99.90
76787;DHT22;65739;51.482;5.702;2023-08-20T09:03:47;24.70;99.90
76787;DHT22;65739;51.482;5.702;2023-08-20T09:06:12;24.80;99.90
76787;DHT22;65739;51.482;5.702;2023-08-20T09:08:38;24.60;99.90
76787;DHT22;65739;51.482;5.702;2023-08-20T09:11:04;24.70;99.90
76787;DHT22;65739;51.482;5.702;2023-08-20T09:13:39;25.10;99.90
76787;DHT22;65739;51.482;5.702;2023-08-20T09:16:10;25.30;99.90
76787;DHT22;65739;51.482;5.702;2023-08-20T09:18:39;25.30;99.90
76787;DHT22;65739;51.482;5.702;2023-08-20T09:21:10;25.40;99.90
76787;DHT22;65739;51.482;5.702;2023-08-20T09:23:36;25.70;99.90
76787;DHT22;65739;51.482;5.702;2023-08-20T09:26:03;26.00;99.90
76787;DHT22;65739;51.482;5.702;2023-08-20T09:28:40;26.10;99.90
76787;DHT22;65739;51.482;5.702;2023-08-20T09:31:05;26.00;99.90
76787;DHT22;65739;51.482;5.702;2023-08-20T09:33:31;26.10;99.90
76787;DHT22;65739;51.482;5.702;2023-08-20T09:35:56;26.10;99.90
76787;DHT22;65739;51.482;5.702;2023-08-20T09:38:23;26.30;99.90
76787;DHT22;65739;51.482;5.702;2023-08-20T09:40:50;26.30;99.90
76787;DHT22;65739;51.482;5.702;2023-08-20T09:43:18;26.50;99.90
76787;DHT22;65739;51.482;5.702;2023-08-20T09:45:46;26.60;99.90
76787;DHT22;65739;51.482;5.702;2023-08-20T09:48:18;26.50;99.90
76787;DHT22;65739;51.482;5.702;2023-08-20T09:50:47;27.00;99.90
76787;DHT22;65739;51.482;5.702;2023-08-20T09:53:26;27.00;99.90
76787;DHT22;65739;51.482;5.702;2023-08-20T09:55:52;27.10;99.90
76787;DHT22;65739;51.482;5.702;2023-08-20T09:58:20;26.80;99.90
76787;DHT22;65739;51.482;5.702;2023-08-20T10:00:51;26.80;99.90
76787;DHT22;65739;51.482;5.702;2023-08-20T10:03:18;27.10;99.90
76787;DHT22;65739;51.482;5.702;2023-08-20T10:05:48;27.20;99.90
76787;DHT22;65739;51.482;5.702;2023-08-20T10:08:15;27.20;99.90
76787;DHT22;65739;51.482;5.702;2023-08-20T10:10:40;27.30;99.90
76787;DHT22;65739;51.482;5.702;2023-08-20T10:13:07;27.50;99.90
76787;DHT22;65739;51.482;5.702;2023-08-20T10:15:33;27.80;99.90
76787;DHT22;65739;51.482;5.702;2023-08-20T10:18:01;28.10;99.90
76787;DHT22;65739;51.482;5.702;2023-08-20T10:20:29;28.00;99.90
76787;DHT22;65739;51.482;5.702;2023-08-20T10:23:00;28.00;99.90
76787;DHT22;65739;51.482;5.702;2023-08-20T10:25:26;28.30;99.90
76787;DHT22;65739;51.482;5.702;2023-08-20T10:27:53;28.60;99.90
76787;DHT22;65739;51.482;5.702;2023-08-20T10:30:24;28.60;99.90
76787;DHT22;65739;51.482;5.702;2023-08-20T10:32:56;28.50;99.90
76787;DHT22;65739;51.482;5.702;2023-08-20T10:35:27;28.60;99.90
76787;DHT22;65739;51.482;5.702;2023-08-20T10:38:19;28.60;99.90
76787;DHT22;65739;51.482;5.702;2023-08-20T10:40:55;28.50;99.90
76787;DHT22;65739;51.482;5.702;2023-08-20T10:43:35;28.10;99.90
76787;DHT22;65739;51.482;5.702;2023-08-20T10:46:21;28.70;99.90
76787;DHT22;65739;51.482;5.702;2023-08-20T10:48:54;28.90;99.90
76787;DHT22;65739;51.482;5.702;2023-08-20T10:51:32;28.80;99.90
76787;DHT22;65739;51.482;5.702;2023-08-20T10:59:57;28.90;99.90
76787;DHT22;65739;51.482;5.702;2023-08-20T11:02:23;29.20;99.90
76787;DHT22;65739;51.482;5.702;2023-08-20T11:04:52;28.80;99.90
76787;DHT22;65739;51.482;5.702;2023-08-20T11:07:18;29.00;99.90
76787;DHT22;65739;51.482;5.702;2023-08-20T11:09:44;29.30;99.90
76787;DHT22;65739;51.482;5.702;2023-08-20T11:12:14;29.40;99.90
76787;DHT22;65739;51.482;5.702;2023-08-20T11:14:40;29.40;99.90
76787;DHT22;65739;51.482;5.702;2023-08-20T11:17:06;29.70;99.90
76787;DHT22;65739;51.482;5.702;2023-08-20T11:19:33;29.80;99.90
76787;DHT22;65739;51.482;5.702;2023-08-20T11:21:59;29.90;99.90
76787;DHT22;65739;51.482;5.702;2023-08-20T11:24:28;29.90;99.90
76787;DHT22;65739;51.482;5.702;2023-08-20T11:26:54;29.80;99.90
76787;DHT22;65739;51.482;5.702;2023-08-20T11:29:20;29.70;99.90
76787;DHT22;65739;51.482;5.702;2023-08-20T11:31:47;29.80;99.90
76787;DHT22;65739;51.482;5.702;2023-08-20T11:34:13;29.80;99.90
76787;DHT22;65739;51.482;5.702;2023-08-20T11:36:39;29.70;99.90
76787;DHT22;65739;51.482;5.702;2023-08-20T11:39:06;29.70;99.90
76787;DHT22;65739;51.482;5.702;2023-08-20T11:41:36;29.90;99.90
76787;DHT22;65739;51.482;5.702;2023-08-20T11:44:02;29.90;99.90
76787;DHT22;65739;51.482;5.702;2023-08-20T11:46:28;30.20;99.90
76787;DHT22;65739;51.482;5.702;2023-08-20T11:49:08;30.50;99.90
76787;DHT22;65739;51.482;5.702;2023-08-20T11:51:47;30.00;99.90
76787;DHT22;65739;51.482;5.702;2023-08-20T11:54:16;30.10;99.90
76787;DHT22;65739;51.482;5.702;2023-08-20T11:56:49;30.40;99.90
76787;DHT22;65739;51.482;5.702;2023-08-20T11:59:17;30.20;99.90
76787;DHT22;65739;51.482;5.702;2023-08-20T12:01:43;30.50;99.90
76787;DHT22;65739;51.482;5.702;2023-08-20T12:04:10;30.10;99.90
76787;DHT22;65739;51.482;5.702;2023-08-20T12:06:37;30.20;99.90
76787;DHT22;65739;51.482;5.702;2023-08-20T12:09:22;30.60;99.90
76787;DHT22;65739;51.482;5.702;2023-08-20T12:11:49;30.50;99.90
76787;DHT22;65739;51.482;5.702;2023-08-20T12:14:16;30.60;99.90
76787;DHT22;65739;51.482;5.702;2023-08-20T12:16:42;30.50;99.90
76787;DHT22;65739;51.482;5.702;2023-08-20T12:19:08;30.60;99.90
76787;DHT22;65739;51.482;5.702;2023-08-20T12:21:34;30.90;99.90
76787;DHT22;65739;51.482;5.702;2023-08-20T12:24:00;30.60;99.90
76787;DHT22;65739;51.482;5.702;2023-08-20T12:26:26;30.80;99.90
76787;DHT22;65739;51.482;5.702;2023-08-20T12:28:51;30.80;99.90
76787;DHT22;65739;51.482;5.702;2023-08-20T12:31:17;30.70;99.90
76787;DHT22;65739;51.482;5.702;2023-08-20T12:33:43;30.40;99.90
76787;DHT22;65739;51.482;5.702;2023-08-20T12:36:08;30.30;99.90
76787;DHT22;65739;51.482;5.702;2023-08-20T12:38:34;30.70;99.90
76787;DHT22;65739;51.482;5.702;2023-08-20T12:41:01;30.60;99.90
76787;DHT22;65739;51.482;5.702;2023-08-20T12:43:27;30.50;99.90
76787;DHT22;65739;51.482;5.702;2023-08-20T12:45:52;30.80;99.90
76787;DHT22;65739;51.482;5.702;2023-08-20T12:48:18;31.10;99.90
76787;DHT22;65739;51.482;5.702;2023-08-20T12:50:43;30.80;99.90
76787;DHT22;65739;51.482;5.702;2023-08-20T12:53:09;29.90;99.90
76787;DHT22;65739;51.482;5.702;2023-08-20T12:55:35;30.00;99.90
76787;DHT22;65739;51.482;5.702;2023-08-20T12:58:00;30.50;99.90
76787;DHT22;65739;51.482;5.702;2023-08-20T13:00:26;30.30;99.90
76787;DHT22;65739;51.482;5.702;2023-08-20T13:02:54;30.70;99.90
76787;DHT22;65739;51.482;5.702;2023-08-20T13:05:21;30.70;99.90
76787;DHT22;65739;51.482;5.702;2023-08-20T13:07:47;31.10;99.90
76787;DHT22;65739;51.482;5.702;2023-08-20T13:10:13;31.30;99.90
76787;DHT22;65739;51.482;5.702;2023-08-20T13:12:41;31.30;99.90
76787;DHT22;65739;51.482;5.702;2023-08-20T13:15:08;31.20;99.90
76787;DHT22;65739;51.482;5.702;2023-08-20T13:17:35;30.90;99.90
76787;DHT22;65739;51.482;5.702;2023-08-20T13:20:01;30.70;99.90
76787;DHT22;65739;51.482;5.702;2023-08-20T13:22:26;30.90;99.90
76787;DHT22;65739;51.482;5.702;2023-08-20T13:24:52;30.90;99.90
76787;DHT22;65739;51.482;5.702;2023-08-20T13:27:17;30.50;99.90
76787;DHT22;65739;51.482;5.702;2023-08-20T13:29:43;30.60;99.90
76787;DHT22;65739;51.482;5.702;2023-08-20T13:32:09;30.90;99.90
76787;DHT22;65739;51.482;5.702;2023-08-20T13:34:34;30.90;99.90
76787;DHT22;65739;51.482;5.702;2023-08-20T13:37:00;31.00;99.90
76787;DHT22;65739;51.482;5.702;2023-08-20T13:39:25;31.30;99.90
76787;DHT22;65739;51.482;5.702;2023-08-20T13:41:51;31.50;99.90
76787;DHT22;65739;51.482;5.702;2023-08-20T13:44:17;31.10;99.90
76787;DHT22;65739;51.482;5.702;2023-08-20T13:46:43;30.90;99.90
76787;DHT22;65739;51.482;5.702;2023-08-20T13:49:08;30.90;99.90
76787;DHT22;65739;51.482;5.702;2023-08-20T13:51:35;31.20;99.90
76787;DHT22;65739;51.482;5.702;2023-08-20T13:54:00;31.00;99.90
76787;DHT22;65739;51.482;5.702;2023-08-20T13:56:29;31.00;99.90
76787;DHT22;65739;51.482;5.702;2023-08-20T13:58:54;31.10;99.90
76787;DHT22;65739;51.482;5.702;2023-08-20T14:01:20;31.20;99.90
76787;DHT22;65739;51.482;5.702;2023-08-20T14:03:46;30.90;99.90
76787;DHT22;65739;51.482;5.702;2023-08-20T14:06:12;30.90;99.90
76787;DHT22;65739;51.482;5.702;2023-08-20T14:08:37;30.90;99.90
76787;DHT22;65739;51.482;5.702;2023-08-20T14:11:03;30.60;99.90
76787;DHT22;65739;51.482;5.702;2023-08-20T14:13:29;30.80;99.90
76787;DHT22;65739;51.482;5.702;2023-08-20T14:15:54;30.60;99.90
76787;DHT22;65739;51.482;5.702;2023-08-20T14:18:20;30.70;99.90
76787;DHT22;65739;51.482;5.702;2023-08-20T14:20:46;30.70;99.90
76787;DHT22;65739;51.482;5.702;2023-08-20T14:23:12;30.90;99.90
76787;DHT22;65739;51.482;5.702;2023-08-20T14:25:37;31.50;99.90
76787;DHT22;65739;51.482;5.702;2023-08-20T14:28:08;31.80;99.90
76787;DHT22;65739;51.482;5.702;2023-08-20T14:30:38;31.70;99.90
76787;DHT22;65739;51.482;5.702;2023-08-20T14:33:04;31.50;99.90
76787;DHT22;65739;51.482;5.702;2023-08-20T14:35:31;31.70;99.90
76787;DHT22;65739;51.482;5.702;2023-08-20T14:37:57;31.70;99.90
76787;DHT22;65739;51.482;5.702;2023-08-20T14:40:23;31.90;99.90
76787;DHT22;65739;51.482;5.702;2023-08-20T14:42:49;31.90;99.90
76787;DHT22;65739;51.482;5.702;2023-08-20T14:45:15;32.10;99.90
76787;DHT22;65739;51.482;5.702;2023-08-20T15:06:11;31.70;99.90
76787;DHT22;65739;51.482;5.702;2023-08-20T15:08:37;31.50;99.90
76787;DHT22;65739;51.482;5.702;2023-08-20T15:11:02;31.60;99.90
76787;DHT22;65739;51.482;5.702;2023-08-20T15:13:30;31.40;99.90
76787;DHT22;65739;51.482;5.702;2023-08-20T15:15:55;31.40;99.90
76787;DHT22;65739;51.482;5.702;2023-08-20T15:18:22;31.60;99.90
76787;DHT22;65739;51.482;5.702;2023-08-20T15:20:58;31.40;99.90
76787;DHT22;65739;51.482;5.702;2023-08-20T15:23:25;30.80;99.90
76787;DHT22;65739;51.482;5.702;2023-08-20T15:25:52;30.20;99.90
76787;DHT22;65739;51.482;5.702;2023-08-20T15:28:19;30.30;99.90
76787;DHT22;65739;51.482;5.702;2023-08-20T15:30:45;30.70;99.90
76787;DHT22;65739;51.482;5.702;2023-08-20T15:33:10;31.30;99.90
76787;DHT22;65739;51.482;5.702;2023-08-20T15:35:39;31.50;99.90
76787;DHT22;65739;51.482;5.702;2023-08-20T15:38:05;31.80;99.90
76787;DHT22;65739;51.482;5.702;2023-08-20T15:40:31;32.00;99.90
76787;DHT22;65739;51.482;5.702;2023-08-20T15:42:57;32.10;99.90
76787;DHT22;65739;51.482;5.702;2023-08-20T15:45:22;32.10;99.90
76787;DHT22;65739;51.482;5.702;2023-08-20T15:47:48;31.90;99.90
76787;DHT22;65739;51.482;5.702;2023-08-20T15:50:13;31.30;99.90
76787;DHT22;65739;51.482;5.702;2023-08-20T15:52:39;31.30;99.90
76787;DHT22;65739;51.482;5.702;2023-08-20T15:55:05;30.90;99.90
76787;DHT22;65739;51.482;5.702;2023-08-20T15:57:30;30.40;99.90